Terminal Aerodrome Forecast
Issued by NWS Twin Cities, MN

Home | Current Version | Previous Version | Graphics & Text | Print | Product List | Glossary On
Versions: 1 2 3 4 5 6 7 8 9 10 11 12 13 14 15 16 17 18 19 20 21 22 23 24 25
221
FTUS43 KMPX 081411 AAA
TAFMSP
TAF AMD
KMSP 081411Z 0814/0918 32018G28KT 6SM -SN BLSN SCT025 OVC040
     FM082100 32017G23KT P6SM BKN025
     FM090300 32015G22KT P6SM BKN035
     FM090900 32011G19KT P6SM SCT250=

USA.gov is the U.S. government's official web portal to all federal, state and local government web resources and services.